Latest Weather Observations for Sydney Airport

IDN60901

Issued at 3:31 pm EDT Monday 30 March 2020 (issued every 10 minutes, with the page automatically refreshed every 10 minutes)

About weather observations | Map of Sydney area stations | Latest observations for Sydney area | Other Formats
Station Details ID: 066037 Name: SYDNEY AIRPORT AMO Lat: -33.95 Lon: 151.17 Height: 6.0 m
Data from the previous 72 hours. | See also: Recent months at Sydney Airport
Date/Time
EDT
Temp
°C
App
Temp
°C
Dew
Point
°C
Rel
Hum
%
Delta-T
°C
Wind Press
QNH
hPa
Press
MSL
hPa
Rain since
9am
mm
Dir  Spd
km/h
Gust
km/h
Spd
kts
Gust
kts
30/03:00pm 26.2 24.8 17.0 57 5.7 WNW 20 30 11 16 1011.4 1011.4 0.0
30/02:30pm 25.3 24.1 17.0 60 5.1 WNW 19 24 10 13 1012.1 1012.1 0.0
30/02:00pm 23.7 22.9 17.2 67 4.0 WNW 17 19 9 10 1012.5 1012.5 0.0
30/01:30pm 23.6 23.4 17.6 69 3.7 NW 15 20 8 11 1012.9 1012.9 0.0
30/01:00pm 23.1 22.0 17.3 70 3.6 NW 19 26 10 14 1013.4 1013.4 0.0
30/12:30pm 22.7 21.4 16.9 70 3.6 NW 19 24 10 13 1013.6 1013.6 0.0
30/12:00pm 23.1 23.1 18.2 74 3.1 NW 15 19 8 10 1013.7 1013.7 0.0
30/11:30am 22.6 23.2 18.6 78 2.5 NNW 13 19 7 10 1013.7 1013.7 0.0
30/11:00am 21.9 22.5 18.7 82 2.0 NW 13 15 7 8 1014.2 1014.2 0.0
30/10:30am 21.5 21.9 19.1 86 1.5 NW 15 17 8 9 1014.2 1014.2 0.0
30/10:00am 21.2 21.6 18.9 87 1.4 NNW 15 17 8 9 1014.3 1014.3 0.0
30/09:30am 21.4 22.5 19.7 90 1.1 NW 13 17 7 9 1014.1 1014.1 0.0
30/09:00am 20.4 21.9 18.9 91 0.9 W 9 9 5 5 1014.1 1014.1 0.8
30/08:30am 21.0 22.4 19.5 91 1.0 N 11 13 6 7 1014.0 1014.0 0.8
30/08:00am 20.6 21.6 19.4 93 0.8 N 13 15 7 8 1013.7 1013.7 0.6
30/07:30am 20.5 21.4 19.2 92 0.8 NNW 13 15 7 8 1013.9 1013.9 0.4
30/07:00am 20.3 20.6 18.8 91 0.9 NNW 15 19 8 10 1013.5 1013.5 0.2
30/06:30am 20.5 22.0 19.0 91 0.9 WNW 9 11 5 6 1013.5 1013.5 0.0
30/06:00am 20.1 21.0 18.4 90 1.1 WNW 11 13 6 7 1013.9 1013.9 0.0
30/05:30am 20.3 21.7 18.6 90 1.1 N 9 11 5 6 1013.4 1013.4 0.0
30/05:00am 20.3 21.1 18.2 88 1.3 NW 11 13 6 7 1013.5 1013.5 0.0
30/04:30am 20.1 21.9 18.4 90 1.1 - 6 9 3 5 1013.6 1013.6 0.0
30/04:00am 19.6 19.1 17.9 90 1.0 W 17 20 9 11 1013.8 1013.8 0.0
30/03:30am 20.1 23.0 18.2 89 1.2 CALM 0 0 0 0 1013.9 1013.9 0.0
30/03:00am 20.3 22.0 18.1 87 1.4 N 6 9 3 5 1014.1 1014.1 0.0
30/02:30am 20.7 22.6 18.6 88 1.3 N 6 9 3 5 1014.5 1014.5 0.0
30/02:00am 20.3 23.2 18.2 88 1.3 CALM 0 0 0 0 1014.8 1014.8 0.0
30/01:30am 20.5 23.5 18.4 88 1.3 CALM 0 0 0 0 1015.0 1015.0 0.0
30/01:00am 20.4 21.5 18.0 86 1.5 W 9 11 5 6 1015.3 1015.3 0.0
30/12:30am 21.4 22.5 18.8 85 1.6 NNE 11 13 6 7 1015.2 1015.2 0.0
30/12:00am 21.4 22.5 18.8 85 1.6 N 11 13 6 7 1015.7 1015.7 0.0
 
Date/Time
EDT
Temp
°C
App
Temp
°C
Dew
Point
°C
Rel
Hum
%
Delta-T
°C
Wind Press
QNH
hPa
Press
MSL
hPa
Rain since
9am
mm
Dir  Spd
km/h
Gust
km/h
Spd
kts
Gust
kts
29/11:30pm 21.4 22.3 18.4 83 1.9 NNE 11 15 6 8 1016.2 1016.2 0.0
29/11:00pm 21.7 22.6 18.5 82 2.0 NNE 11 13 6 7 1016.4 1016.4 0.0
29/10:30pm 22.2 22.9 18.8 81 2.1 NNE 13 17 7 9 1016.7 1016.7 0.0
29/10:00pm 22.2 22.1 18.8 81 2.1 N 17 20 9 11 1017.0 1017.0 0.0
29/09:30pm 22.3 21.7 18.9 81 2.1 NNE 20 30 11 16 1016.9 1016.9 0.0
29/09:00pm 22.3 20.9 18.9 81 2.1 NNE 24 32 13 17 1016.7 1016.7 0.0
29/08:30pm 22.2 20.0 18.6 80 2.3 N 28 37 15 20 1016.8 1016.8 0.0
29/08:00pm 22.3 19.6 18.5 79 2.4 NNE 30 35 16 19 1016.3 1016.3 0.0
29/07:30pm 22.5 20.5 18.3 77 2.6 NNE 26 35 14 19 1016.4 1016.4 0.0
29/07:00pm 23.2 21.7 18.5 75 3.0 NNE 24 32 13 17 1016.5 1016.5 0.0
29/06:30pm 22.9 19.7 18.2 75 2.9 NNE 32 39 17 21 1016.2 1016.2 0.0
29/06:00pm 23.5 20.2 17.9 71 3.5 NE 32 37 17 20 1016.2 1016.2 0.0
29/05:30pm 23.5 20.0 17.5 69 3.7 NNE 32 39 17 21 1016.1 1016.1 0.0
29/05:00pm 23.8 20.3 17.8 69 3.7 NNE 33 41 18 22 1016.2 1016.2 0.0
29/04:30pm 24.4 21.3 17.6 66 4.2 NNE 30 37 16 20 1016.4 1016.4 0.0
29/04:00pm 24.1 22.0 17.1 65 4.3 NNE 24 37 13 20 1016.6 1016.6 0.0
29/03:30pm 24.6 20.8 17.3 64 4.5 NE 33 43 18 23 1016.8 1016.8 0.0
29/03:00pm 24.6 21.2 17.6 65 4.4 NE 32 39 17 21 1017.2 1017.2 0.0
29/02:30pm 24.2 20.6 17.2 65 4.3 NNE 32 39 17 21 1017.6 1017.6 0.0
29/02:00pm 24.8 21.4 17.8 65 4.4 NNE 32 39 17 21 1018.3 1018.3 0.0
29/01:30pm 24.4 20.7 17.4 65 4.4 NNE 33 39 18 21 1018.6 1018.6 0.0
29/01:00pm 23.8 19.8 16.6 64 4.4 NNE 33 44 18 24 1019.3 1019.3 0.0
29/12:30pm 23.4 19.4 16.2 64 4.4 NNE 32 39 17 21 1019.6 1019.6 0.0
29/12:00pm 23.5 19.0 16.3 64 4.4 NNE 35 43 19 23 1020.0 1020.0 0.0
29/11:30am 23.7 21.0 16.5 64 4.4 NNE 26 32 14 17 1020.5 1020.5 0.0
29/11:00am 22.9 21.2 17.1 70 3.6 N 22 30 12 16 1020.8 1020.8 0.0
29/10:30am 22.0 19.7 17.6 76 2.7 NNE 26 35 14 19 1021.0 1021.0 0.0
29/10:23am 22.3 20.2 18.9 81 2.1 NNE 28 35 15 19 1021.0 1021.0 0.0
29/10:00am 20.0 21.9 18.5 91 0.9 NNW 6 9 3 5 1021.0 1021.0 0.0
29/09:30am 19.5 20.7 18.3 93 0.7 SW 9 13 5 7 1021.0 1021.0 0.0
29/09:00am 19.0 21.9 18.2 95 0.5 CALM 0 0 0 0 1020.9 1020.9 17.2
29/08:30am 18.2 20.8 17.6 96 0.4 CALM 0 0 0 0 1020.8 1020.8 17.2
29/08:00am 18.0 20.6 17.4 96 0.4 CALM 0 0 0 0 1020.6 1020.6 17.2
29/07:30am 18.3 20.6 17.7 96 0.4 WNW 2 7 1 4 1020.5 1020.5 17.2
29/07:00am 18.1 19.6 17.5 96 0.4 SW 6 9 3 5 1020.2 1020.2 17.2
29/06:30am 17.7 18.0 17.1 96 0.4 SW 11 13 6 7 1019.8 1019.8 17.2
29/06:00am 17.8 18.6 17.2 96 0.4 W 9 11 5 6 1019.7 1019.7 17.2
29/05:30am 18.0 20.6 17.4 96 0.4 CALM 0 0 0 0 1019.9 1019.9 17.2
29/05:00am 17.8 18.6 17.2 96 0.4 NW 9 9 5 5 1020.0 1020.0 17.2
29/04:30am 17.9 19.1 17.3 96 0.4 NNW 7 11 4 6 1020.0 1020.0 17.2
29/04:00am 17.9 19.7 17.3 96 0.4 W 4 15 2 8 1020.3 1020.3 6.8
29/03:30am 18.0 19.1 17.2 95 0.5 W 7 11 4 6 1020.2 1020.2 3.8
29/03:00am 18.1 19.3 17.3 95 0.5 WNW 7 7 4 4 1020.6 1020.6 3.0
29/02:30am 18.0 19.3 17.2 95 0.5 N 6 7 3 4 1021.0 1021.0 3.0
29/02:00am 18.1 18.9 17.3 95 0.5 W 9 13 5 7 1021.2 1021.2 3.0
29/01:30am 18.4 18.5 17.4 94 0.6 W 13 17 7 9 1021.6 1021.6 3.0
29/01:00am 18.6 19.8 17.4 93 0.7 W 7 9 4 5 1021.7 1021.7 2.4
29/12:30am 18.8 19.7 17.5 92 0.8 W 9 11 5 6 1022.0 1022.0 2.4
29/12:00am 19.5 20.5 17.8 90 1.0 NW 9 11 5 6 1022.2 1022.2 2.4
 
Date/Time
EDT
Temp
°C
App
Temp
°C
Dew
Point
°C
Rel
Hum
%
Delta-T
°C
Wind Press
QNH
hPa
Press
MSL
hPa
Rain since
9am
mm
Dir  Spd
km/h
Gust
km/h
Spd
kts
Gust
kts
28/11:30pm 19.8 21.1 18.5 92 0.8 NNW 9 13 5 7 1022.4 1022.4 2.4
28/11:00pm 19.3 19.9 18.5 95 0.5 WNW 13 28 7 15 1022.6 1022.6 2.4
28/10:30pm 19.3 19.9 18.5 95 0.5 WNW 13 26 7 14 1022.6 1022.6 2.4
28/10:00pm 18.7 19.0 17.9 95 0.5 WSW 13 17 7 9 1022.8 1022.8 2.4
28/09:30pm 18.1 18.9 17.3 95 0.5 WSW 9 15 5 8 1023.0 1023.0 2.4
28/09:00pm 18.4 18.2 17.6 95 0.5 SW 15 17 8 9 1022.8 1022.8 2.2
28/08:42pm 18.5 18.3 17.5 94 0.6 SW 15 19 8 10 1022.8 1022.8 1.8
28/08:30pm 18.5 18.3 17.5 94 0.6 SSW 15 17 8 9 1022.8 1022.8 1.2
28/08:00pm 18.4 18.8 17.2 93 0.7 SSW 11 15 6 8 1022.8 1022.8 1.2
28/07:30pm 18.4 19.5 17.1 92 0.8 SE 7 9 4 5 1023.0 1023.0 1.0
28/07:00pm 18.8 20.1 17.5 92 0.8 SE 7 11 4 6 1022.9 1022.9 0.2
28/06:30pm 18.6 19.3 17.1 91 0.9 ESE 9 13 5 7 1022.8 1022.8 0.2
28/06:00pm 18.9 16.5 16.5 86 1.4 E 24 33 13 18 1022.9 1022.9 0.0
28/05:30pm 21.9 19.4 13.5 59 4.8 E 19 32 10 17 1022.5 1022.5 0.0
28/05:00pm 22.2 19.2 12.7 55 5.4 ENE 20 28 11 15 1022.4 1022.4 0.0
28/04:30pm 22.6 19.6 12.0 51 6.0 E 19 22 10 12 1022.4 1022.4 0.0
28/04:00pm 23.2 20.3 12.2 50 6.2 ENE 19 28 10 15 1022.6 1022.6 0.0
28/03:30pm 24.0 20.7 12.9 50 6.4 ENE 22 28 12 15 1022.7 1022.7 0.0
28/03:00pm 23.5 20.3 11.9 48 6.5 E 20 30 11 16 1023.0 1023.0 0.0
28/02:30pm 24.3 21.4 12.3 47 6.9 E 19 28 10 15 1023.0 1023.0 0.0
28/02:00pm 24.0 21.0 12.6 49 6.5 ENE 20 30 11 16 1023.5 1023.5 0.0
28/01:30pm 23.5 21.1 12.8 51 6.1 ENE 17 33 9 18 1024.0 1024.0 0.0
28/01:00pm 23.8 21.1 12.8 50 6.3 E 19 26 10 14 1024.5 1024.5 0.0
28/12:30pm 24.2 21.7 12.2 47 6.8 E 17 26 9 14 1024.9 1024.9 0.0
28/12:00pm 23.7 21.2 11.1 45 7.0 ENE 15 30 8 16 1025.1 1025.1 0.0
28/11:30am 24.0 22.3 12.6 49 6.5 ESE 13 19 7 10 1025.3 1025.3 0.0
28/11:00am 20.9 21.1 16.7 77 2.5 SSE 11 19 6 10 1025.4 1025.4 0.0
28/10:30am 20.7 21.6 16.5 77 2.5 SSW 7 11 4 6 1025.5 1025.5 0.0
28/10:00am 20.3 20.5 14.7 70 3.3 SW 7 11 4 6 1025.6 1025.6 0.0
28/09:30am 19.9 21.1 14.9 73 2.9 NW 2 7 1 4 1025.7 1025.7 0.0
28/09:00am 19.1 19.4 15.0 77 2.4 NW 7 11 4 6 1025.6 1025.6 0.8
28/08:30am 17.7 16.6 14.4 81 1.9 NW 13 13 7 7 1025.4 1025.4 0.8
28/08:00am 17.2 16.9 14.3 83 1.7 NNW 9 13 5 7 1025.1 1025.1 0.8
28/07:30am 16.3 15.4 13.8 85 1.4 NNW 11 13 6 7 1024.9 1024.9 0.8
28/07:00am 16.8 15.8 14.6 87 1.3 NNW 13 15 7 8 1024.7 1024.7 0.8
28/06:30am 16.7 16.4 14.5 87 1.3 NNW 9 11 5 6 1024.5 1024.5 0.8
28/06:00am 16.6 16.0 14.6 88 1.1 NNW 11 13 6 7 1024.4 1024.4 0.8
28/05:30am 16.9 16.5 15.2 90 1.0 NW 11 11 6 6 1024.1 1024.1 0.8
28/05:00am 17.0 17.0 15.3 90 1.0 NNW 9 11 5 6 1024.1 1024.1 0.8
28/04:30am 16.6 16.1 14.8 89 1.0 W 11 15 6 8 1024.0 1024.0 0.8
28/04:00am 17.1 16.5 14.7 86 1.4 NNW 11 17 6 9 1024.3 1024.3 0.2
28/03:30am 17.0 16.2 13.9 82 1.8 NW 11 13 6 7 1024.2 1024.2 0.2
28/03:00am 17.7 17.7 15.1 85 1.5 SSE 9 11 5 6 1024.6 1024.6 0.2
28/02:30am 18.0 17.4 14.5 80 2.0 SE 11 15 6 8 1024.7 1024.7 0.2
28/02:00am 19.3 18.1 15.0 76 2.5 SE 15 19 8 10 1024.9 1024.9 0.2
28/01:30am 19.2 18.0 15.1 77 2.4 SSE 15 19 8 10 1025.0 1025.0 0.2
28/01:00am 19.3 17.5 15.4 78 2.3 SE 19 24 10 13 1025.3 1025.3 0.2
28/12:30am 17.8 16.2 13.9 78 2.2 SE 15 20 8 11 1025.7 1025.7 0.2
28/12:00am 18.6 17.4 13.9 74 2.7 SE 13 17 7 9 1025.8 1025.8 0.2
 
Date/Time
EDT
Temp
°C
App
Temp
°C
Dew
Point
°C
Rel
Hum
%
Delta-T
°C
Wind Press
QNH
hPa
Press
MSL
hPa
Rain since
9am
mm
Dir  Spd
km/h
Gust
km/h
Spd
kts
Gust
kts
27/11:30pm 17.9 16.8 13.2 74 2.6 ESE 11 15 6 8 1026.1 1026.1 0.2
27/11:00pm 18.1 16.8 13.6 75 2.5 ESE 13 15 7 8 1026.2 1026.2 0.2
27/10:30pm 18.2 16.6 12.9 71 3.0 ESE 13 17 7 9 1026.3 1026.3 0.2
27/10:00pm 18.7 17.2 13.1 70 3.1 ESE 13 13 7 7 1026.4 1026.4 0.2
27/09:30pm 18.6 17.3 12.6 68 3.4 ESE 11 13 6 7 1026.4 1026.4 0.2
27/09:00pm 18.7 17.4 12.5 67 3.4 ESE 11 15 6 8 1026.3 1026.3 0.2
27/08:30pm 19.3 18.7 12.3 64 3.9 E 7 9 4 5 1026.1 1026.1 0.2
27/08:00pm 19.7 18.8 13.6 68 3.5 SE 11 15 6 8 1025.9 1025.9 0.2
27/07:30pm 19.9 18.4 13.1 65 3.9 SE 13 17 7 9 1025.7 1025.7 0.2
27/07:00pm 19.7 17.7 11.5 59 4.5 ESE 13 17 7 9 1025.7 1025.7 0.2
27/06:30pm 20.1 17.8 11.6 58 4.7 SE 15 20 8 11 1025.5 1025.5 0.2
27/06:00pm 20.7 18.3 11.3 55 5.2 SE 15 19 8 10 1025.3 1025.3 0.2
27/05:30pm 21.2 18.4 11.5 54 5.4 SE 17 20 9 11 1025.3 1025.3 0.2
27/05:00pm 21.5 18.8 11.8 54 5.4 SE 17 20 9 11 1025.3 1025.3 0.2
27/04:30pm 21.5 19.3 13.2 59 4.8 SE 17 24 9 13 1025.3 1025.3 0.2
27/04:00pm 21.9 19.3 11.9 53 5.6 SE 17 20 9 11 1025.5 1025.5 0.2

Latest Capital City Observations: Canberra | Sydney | Melbourne | Brisbane | Adelaide | Perth | Hobart | Darwin

Other formats

Comma delimited format used in spreadsheet applications
http://www.bom.gov.au/fwo/IDN60901/IDN60901.94767.axf

JavaScript Object Notation format (JSON) in row-major order
http://www.bom.gov.au/fwo/IDN60901/IDN60901.94767.json

Data quality

Most of these data are generated automatically and are frequently updated. Quality checks on data are not normally performed. It is possible for incorrect values to appear. Refer to information at About Latest Weather Observations and please check the disclaimer before using these data.